sensor_id;sensor_type;location;lat;lon;timestamp;P1;durP1;ratioP1;P2;durP2;ratioP2
72559;SDS011;62987;52.382;9.752;2023-07-31T00:02:13;6.85;;;1.63;;
72559;SDS011;62987;52.382;9.752;2023-07-31T00:04:41;2.58;;;0.95;;
72559;SDS011;62987;52.382;9.752;2023-07-31T00:07:11;3.53;;;1.10;;
72559;SDS011;62987;52.382;9.752;2023-07-31T00:09:39;3.45;;;1.23;;
72559;SDS011;62987;52.382;9.752;2023-07-31T00:12:07;3.50;;;1.10;;
72559;SDS011;62987;52.382;9.752;2023-07-31T00:14:35;5.90;;;1.60;;
72559;SDS011;62987;52.382;9.752;2023-07-31T00:17:04;3.38;;;1.42;;
72559;SDS011;62987;52.382;9.752;2023-07-31T00:19:33;2.35;;;1.02;;
72559;SDS011;62987;52.382;9.752;2023-07-31T00:22:01;2.88;;;1.10;;
72559;SDS011;62987;52.382;9.752;2023-07-31T00:24:30;2.72;;;1.25;;
72559;SDS011;62987;52.382;9.752;2023-07-31T00:26:58;5.50;;;1.50;;
72559;SDS011;62987;52.382;9.752;2023-07-31T00:29:26;4.05;;;1.17;;
72559;SDS011;62987;52.382;9.752;2023-07-31T00:31:56;4.30;;;1.38;;
72559;SDS011;62987;52.382;9.752;2023-07-31T00:34:24;2.90;;;1.10;;
72559;SDS011;62987;52.382;9.752;2023-07-31T00:36:52;2.85;;;1.20;;
72559;SDS011;62987;52.382;9.752;2023-07-31T00:39:20;4.13;;;1.15;;
72559;SDS011;62987;52.382;9.752;2023-07-31T00:41:49;2.50;;;1.10;;
72559;SDS011;62987;52.382;9.752;2023-07-31T00:44:18;6.50;;;1.40;;
72559;SDS011;62987;52.382;9.752;2023-07-31T00:46:46;2.03;;;1.02;;
72559;SDS011;62987;52.382;9.752;2023-07-31T00:49:14;4.35;;;1.30;;
72559;SDS011;62987;52.382;9.752;2023-07-31T00:51:42;4.78;;;1.23;;
72559;SDS011;62987;52.382;9.752;2023-07-31T00:54:10;3.50;;;1.33;;
72559;SDS011;62987;52.382;9.752;2023-07-31T00:56:38;4.47;;;1.23;;
72559;SDS011;62987;52.382;9.752;2023-07-31T00:59:10;2.15;;;1.05;;
72559;SDS011;62987;52.382;9.752;2023-07-31T01:01:38;2.80;;;1.05;;
72559;SDS011;62987;52.382;9.752;2023-07-31T01:04:06;3.00;;;1.30;;
72559;SDS011;62987;52.382;9.752;2023-07-31T01:06:35;3.70;;;1.30;;
72559;SDS011;62987;52.382;9.752;2023-07-31T01:09:09;4.13;;;1.23;;
72559;SDS011;62987;52.382;9.752;2023-07-31T01:11:46;2.63;;;1.20;;
72559;SDS011;62987;52.382;9.752;2023-07-31T01:14:21;2.38;;;1.17;;
72559;SDS011;62987;52.382;9.752;2023-07-31T01:16:49;3.35;;;1.27;;
72559;SDS011;62987;52.382;9.752;2023-07-31T01:19:17;2.45;;;0.85;;
72559;SDS011;62987;52.382;9.752;2023-07-31T01:22:04;2.65;;;1.23;;
72559;SDS011;62987;52.382;9.752;2023-07-31T01:24:49;2.55;;;0.80;;
72559;SDS011;62987;52.382;9.752;2023-07-31T01:27:27;2.88;;;1.15;;
72559;SDS011;62987;52.382;9.752;2023-07-31T01:30:00;1.95;;;0.77;;
72559;SDS011;62987;52.382;9.752;2023-07-31T01:32:38;2.80;;;0.98;;
72559;SDS011;62987;52.382;9.752;2023-07-31T01:35:08;4.70;;;1.27;;
72559;SDS011;62987;52.382;9.752;2023-07-31T01:37:36;4.20;;;1.25;;
72559;SDS011;62987;52.382;9.752;2023-07-31T01:40:06;3.13;;;1.13;;
72559;SDS011;62987;52.382;9.752;2023-07-31T01:42:36;2.40;;;0.98;;
72559;SDS011;62987;52.382;9.752;2023-07-31T01:45:04;2.53;;;1.10;;
72559;SDS011;62987;52.382;9.752;2023-07-31T01:47:33;4.03;;;1.05;;
72559;SDS011;62987;52.382;9.752;2023-07-31T01:50:01;4.65;;;1.23;;
72559;SDS011;62987;52.382;9.752;2023-07-31T01:52:29;2.70;;;1.10;;
72559;SDS011;62987;52.382;9.752;2023-07-31T01:54:57;2.95;;;1.15;;
72559;SDS011;62987;52.382;9.752;2023-07-31T01:57:25;2.67;;;1.23;;
72559;SDS011;62987;52.382;9.752;2023-07-31T01:59:55;2.13;;;0.90;;
72559;SDS011;62987;52.382;9.752;2023-07-31T02:02:23;3.05;;;0.90;;
72559;SDS011;62987;52.382;9.752;2023-07-31T02:04:51;3.20;;;0.80;;
72559;SDS011;62987;52.382;9.752;2023-07-31T02:07:19;1.77;;;0.73;;
72559;SDS011;62987;52.382;9.752;2023-07-31T02:09:47;3.72;;;0.95;;
72559;SDS011;62987;52.382;9.752;2023-07-31T02:12:16;2.42;;;0.90;;
72559;SDS011;62987;52.382;9.752;2023-07-31T02:14:44;1.60;;;0.95;;
72559;SDS011;62987;52.382;9.752;2023-07-31T02:17:13;2.15;;;1.02;;
72559;SDS011;62987;52.382;9.752;2023-07-31T02:19:41;1.73;;;0.80;;
72559;SDS011;62987;52.382;9.752;2023-07-31T02:22:09;2.95;;;0.95;;
72559;SDS011;62987;52.382;9.752;2023-07-31T02:24:37;2.28;;;0.90;;
72559;SDS011;62987;52.382;9.752;2023-07-31T02:27:05;1.30;;;0.60;;
72559;SDS011;62987;52.382;9.752;2023-07-31T02:29:34;2.30;;;0.75;;
72559;SDS011;62987;52.382;9.752;2023-07-31T02:32:02;0.90;;;0.70;;
72559;SDS011;62987;52.382;9.752;2023-07-31T02:34:31;1.98;;;0.73;;
72559;SDS011;62987;52.382;9.752;2023-07-31T02:37:00;2.53;;;0.93;;
72559;SDS011;62987;52.382;9.752;2023-07-31T02:39:28;1.73;;;0.85;;
72559;SDS011;62987;52.382;9.752;2023-07-31T02:41:56;1.20;;;0.52;;
72559;SDS011;62987;52.382;9.752;2023-07-31T02:44:24;1.80;;;0.90;;
72559;SDS011;62987;52.382;9.752;2023-07-31T02:46:52;3.45;;;0.85;;
72559;SDS011;62987;52.382;9.752;2023-07-31T02:49:20;1.50;;;0.70;;
72559;SDS011;62987;52.382;9.752;2023-07-31T02:51:49;1.17;;;0.63;;
72559;SDS011;62987;52.382;9.752;2023-07-31T02:54:17;1.35;;;0.50;;
72559;SDS011;62987;52.382;9.752;2023-07-31T02:56:47;1.65;;;0.60;;
72559;SDS011;62987;52.382;9.752;2023-07-31T02:59:16;2.13;;;0.90;;
72559;SDS011;62987;52.382;9.752;2023-07-31T03:01:44;2.22;;;0.70;;
72559;SDS011;62987;52.382;9.752;2023-07-31T03:04:12;1.48;;;0.68;;
72559;SDS011;62987;52.382;9.752;2023-07-31T03:06:44;3.22;;;0.75;;
72559;SDS011;62987;52.382;9.752;2023-07-31T03:09:13;2.13;;;0.98;;
72559;SDS011;62987;52.382;9.752;2023-07-31T03:11:41;2.35;;;0.63;;
72559;SDS011;62987;52.382;9.752;2023-07-31T03:14:10;1.33;;;0.65;;
72559;SDS011;62987;52.382;9.752;2023-07-31T03:16:38;1.42;;;0.68;;
72559;SDS011;62987;52.382;9.752;2023-07-31T03:19:07;1.15;;;0.60;;
72559;SDS011;62987;52.382;9.752;2023-07-31T03:21:35;3.03;;;0.63;;
72559;SDS011;62987;52.382;9.752;2023-07-31T03:24:03;2.75;;;0.95;;
72559;SDS011;62987;52.382;9.752;2023-07-31T03:26:33;1.45;;;0.52;;
72559;SDS011;62987;52.382;9.752;2023-07-31T03:29:01;1.27;;;0.60;;
72559;SDS011;62987;52.382;9.752;2023-07-31T03:31:29;1.98;;;0.80;;
72559;SDS011;62987;52.382;9.752;2023-07-31T03:33:57;2.10;;;0.88;;
72559;SDS011;62987;52.382;9.752;2023-07-31T03:36:26;2.92;;;0.98;;
72559;SDS011;62987;52.382;9.752;2023-07-31T03:38:54;2.17;;;0.75;;
72559;SDS011;62987;52.382;9.752;2023-07-31T03:41:23;2.20;;;0.93;;
72559;SDS011;62987;52.382;9.752;2023-07-31T03:43:53;1.55;;;0.70;;
72559;SDS011;62987;52.382;9.752;2023-07-31T03:46:22;2.05;;;0.80;;
72559;SDS011;62987;52.382;9.752;2023-07-31T03:48:51;1.98;;;0.80;;
72559;SDS011;62987;52.382;9.752;2023-07-31T03:51:19;1.85;;;0.85;;
72559;SDS011;62987;52.382;9.752;2023-07-31T03:53:47;2.35;;;0.80;;
72559;SDS011;62987;52.382;9.752;2023-07-31T03:56:15;2.78;;;0.90;;
72559;SDS011;62987;52.382;9.752;2023-07-31T03:58:43;2.72;;;0.70;;
72559;SDS011;62987;52.382;9.752;2023-07-31T04:01:12;2.25;;;1.00;;
72559;SDS011;62987;52.382;9.752;2023-07-31T04:03:40;4.05;;;0.93;;
72559;SDS011;62987;52.382;9.752;2023-07-31T04:06:08;1.98;;;0.90;;
72559;SDS011;62987;52.382;9.752;2023-07-31T04:08:37;2.70;;;0.95;;
72559;SDS011;62987;52.382;9.752;2023-07-31T04:11:05;1.73;;;0.70;;
72559;SDS011;62987;52.382;9.752;2023-07-31T04:13:33;0.80;;;0.40;;
72559;SDS011;62987;52.382;9.752;2023-07-31T04:16:00;2.78;;;0.85;;
72559;SDS011;62987;52.382;9.752;2023-07-31T04:18:30;2.45;;;0.80;;
72559;SDS011;62987;52.382;9.752;2023-07-31T04:20:58;1.63;;;0.60;;
72559;SDS011;62987;52.382;9.752;2023-07-31T04:23:27;2.05;;;0.90;;
72559;SDS011;62987;52.382;9.752;2023-07-31T04:25:56;3.65;;;0.90;;
72559;SDS011;62987;52.382;9.752;2023-07-31T04:28:24;2.13;;;0.80;;
72559;SDS011;62987;52.382;9.752;2023-07-31T04:30:52;2.63;;;0.73;;
72559;SDS011;62987;52.382;9.752;2023-07-31T04:33:21;2.22;;;0.77;;
72559;SDS011;62987;52.382;9.752;2023-07-31T04:35:51;1.27;;;0.50;;
72559;SDS011;62987;52.382;9.752;2023-07-31T04:38:20;1.73;;;0.90;;
72559;SDS011;62987;52.382;9.752;2023-07-31T04:40:49;3.95;;;0.90;;
72559;SDS011;62987;52.382;9.752;2023-07-31T04:43:17;2.35;;;0.80;;
72559;SDS011;62987;52.382;9.752;2023-07-31T04:45:45;2.00;;;0.65;;
72559;SDS011;62987;52.382;9.752;2023-07-31T04:48:14;2.60;;;1.00;;
72559;SDS011;62987;52.382;9.752;2023-07-31T04:50:42;1.27;;;0.45;;
72559;SDS011;62987;52.382;9.752;2023-07-31T04:53:11;1.70;;;0.80;;
72559;SDS011;62987;52.382;9.752;2023-07-31T04:55:39;1.48;;;0.50;;
72559;SDS011;62987;52.382;9.752;2023-07-31T04:58:07;1.88;;;0.77;;
72559;SDS011;62987;52.382;9.752;2023-07-31T05:00:34;2.47;;;0.70;;
72559;SDS011;62987;52.382;9.752;2023-07-31T05:03:02;1.88;;;0.75;;
72559;SDS011;62987;52.382;9.752;2023-07-31T05:05:31;1.33;;;0.50;;
72559;SDS011;62987;52.382;9.752;2023-07-31T05:07:59;1.80;;;0.52;;
72559;SDS011;62987;52.382;9.752;2023-07-31T05:10:29;1.58;;;0.57;;
72559;SDS011;62987;52.382;9.752;2023-07-31T05:12:57;1.02;;;0.40;;
72559;SDS011;62987;52.382;9.752;2023-07-31T05:15:24;1.23;;;0.50;;
72559;SDS011;62987;52.382;9.752;2023-07-31T05:17:53;1.27;;;0.70;;
72559;SDS011;62987;52.382;9.752;2023-07-31T05:20:21;1.83;;;0.75;;
72559;SDS011;62987;52.382;9.752;2023-07-31T05:22:49;2.33;;;0.57;;
72559;SDS011;62987;52.382;9.752;2023-07-31T05:25:18;0.90;;;0.60;;
72559;SDS011;62987;52.382;9.752;2023-07-31T05:27:48;2.75;;;1.00;;
72559;SDS011;62987;52.382;9.752;2023-07-31T05:30:16;1.85;;;1.15;;
72559;SDS011;62987;52.382;9.752;2023-07-31T05:32:44;1.00;;;0.38;;
72559;SDS011;62987;52.382;9.752;2023-07-31T05:35:12;1.15;;;0.52;;
72559;SDS011;62987;52.382;9.752;2023-07-31T05:37:40;0.90;;;0.30;;
72559;SDS011;62987;52.382;9.752;2023-07-31T05:40:08;2.00;;;0.63;;
72559;SDS011;62987;52.382;9.752;2023-07-31T05:42:37;3.13;;;0.57;;
72559;SDS011;62987;52.382;9.752;2023-07-31T05:45:07;1.40;;;0.60;;
72559;SDS011;62987;52.382;9.752;2023-07-31T05:47:35;3.00;;;0.90;;
72559;SDS011;62987;52.382;9.752;2023-07-31T05:50:03;3.60;;;0.90;;
72559;SDS011;62987;52.382;9.752;2023-07-31T05:52:32;5.20;;;2.17;;
72559;SDS011;62987;52.382;9.752;2023-07-31T05:54:59;5.57;;;2.10;;
72559;SDS011;62987;52.382;9.752;2023-07-31T05:57:28;3.50;;;1.90;;
72559;SDS011;62987;52.382;9.752;2023-07-31T05:59:56;3.97;;;1.58;;
72559;SDS011;62987;52.382;9.752;2023-07-31T06:02:25;5.25;;;1.92;;
72559;SDS011;62987;52.382;9.752;2023-07-31T06:04:53;4.45;;;1.85;;
72559;SDS011;62987;52.382;9.752;2023-07-31T06:07:21;5.40;;;2.22;;
72559;SDS011;62987;52.382;9.752;2023-07-31T06:09:49;6.95;;;2.88;;
72559;SDS011;62987;52.382;9.752;2023-07-31T06:12:17;6.38;;;2.92;;
72559;SDS011;62987;52.382;9.752;2023-07-31T06:14:45;8.18;;;3.45;;
72559;SDS011;62987;52.382;9.752;2023-07-31T06:17:13;8.38;;;3.47;;
72559;SDS011;62987;52.382;9.752;2023-07-31T06:19:43;10.27;;;3.78;;
72559;SDS011;62987;52.382;9.752;2023-07-31T06:22:11;7.40;;;3.13;;
72559;SDS011;62987;52.382;9.752;2023-07-31T06:24:39;7.80;;;2.80;;
72559;SDS011;62987;52.382;9.752;2023-07-31T06:27:07;8.13;;;3.20;;
72559;SDS011;62987;52.382;9.752;2023-07-31T06:29:35;7.55;;;3.78;;
72559;SDS011;62987;52.382;9.752;2023-07-31T06:32:03;7.15;;;2.85;;
72559;SDS011;62987;52.382;9.752;2023-07-31T06:34:31;7.75;;;3.35;;
72559;SDS011;62987;52.382;9.752;2023-07-31T06:37:01;11.02;;;3.92;;
72559;SDS011;62987;52.382;9.752;2023-07-31T06:39:29;7.80;;;3.35;;
72559;SDS011;62987;52.382;9.752;2023-07-31T06:41:57;9.63;;;3.28;;
72559;SDS011;62987;52.382;9.752;2023-07-31T06:44:25;6.53;;;3.00;;
72559;SDS011;62987;52.382;9.752;2023-07-31T06:46:53;5.97;;;2.72;;
72559;SDS011;62987;52.382;9.752;2023-07-31T06:49:21;15.70;;;3.25;;
72559;SDS011;62987;52.382;9.752;2023-07-31T06:51:49;7.32;;;3.15;;
72559;SDS011;62987;52.382;9.752;2023-07-31T06:54:18;7.78;;;3.05;;
72559;SDS011;62987;52.382;9.752;2023-07-31T06:56:47;7.78;;;3.58;;
72559;SDS011;62987;52.382;9.752;2023-07-31T06:59:15;8.18;;;3.53;;
72559;SDS011;62987;52.382;9.752;2023-07-31T07:01:43;10.32;;;3.85;;
72559;SDS011;62987;52.382;9.752;2023-07-31T07:04:11;8.35;;;3.67;;
72559;SDS011;62987;52.382;9.752;2023-07-31T07:06:39;11.82;;;4.22;;
72559;SDS011;62987;52.382;9.752;2023-07-31T07:09:08;11.00;;;3.72;;
72559;SDS011;62987;52.382;9.752;2023-07-31T07:11:37;10.07;;;4.38;;
72559;SDS011;62987;52.382;9.752;2023-07-31T07:14:05;13.30;;;4.88;;
72559;SDS011;62987;52.382;9.752;2023-07-31T07:16:33;11.10;;;4.85;;
72559;SDS011;62987;52.382;9.752;2023-07-31T07:19:01;11.95;;;3.72;;
72559;SDS011;62987;52.382;9.752;2023-07-31T07:21:31;11.30;;;4.88;;
72559;SDS011;62987;52.382;9.752;2023-07-31T07:23:59;10.63;;;5.13;;
72559;SDS011;62987;52.382;9.752;2023-07-31T07:26:27;10.85;;;4.22;;
72559;SDS011;62987;52.382;9.752;2023-07-31T07:28:56;10.55;;;4.20;;
72559;SDS011;62987;52.382;9.752;2023-07-31T07:31:27;10.02;;;3.92;;
72559;SDS011;62987;52.382;9.752;2023-07-31T07:33:55;9.52;;;5.60;;
72559;SDS011;62987;52.382;9.752;2023-07-31T07:36:23;9.48;;;4.78;;
72559;SDS011;62987;52.382;9.752;2023-07-31T07:38:51;7.78;;;4.18;;
72559;SDS011;62987;52.382;9.752;2023-07-31T07:41:19;13.63;;;5.25;;
72559;SDS011;62987;52.382;9.752;2023-07-31T07:43:47;11.63;;;4.50;;
72559;SDS011;62987;52.382;9.752;2023-07-31T07:46:17;19.27;;;5.32;;
72559;SDS011;62987;52.382;9.752;2023-07-31T07:48:45;11.50;;;5.60;;
72559;SDS011;62987;52.382;9.752;2023-07-31T07:51:13;12.13;;;5.75;;
72559;SDS011;62987;52.382;9.752;2023-07-31T07:53:41;10.50;;;4.95;;
72559;SDS011;62987;52.382;9.752;2023-07-31T07:56:09;10.93;;;6.22;;
72559;SDS011;62987;52.382;9.752;2023-07-31T07:58:37;10.43;;;3.80;;
72559;SDS011;62987;52.382;9.752;2023-07-31T08:01:05;9.73;;;4.32;;
72559;SDS011;62987;52.382;9.752;2023-07-31T08:03:34;13.43;;;4.88;;
72559;SDS011;62987;52.382;9.752;2023-07-31T08:06:02;10.95;;;5.35;;
72559;SDS011;62987;52.382;9.752;2023-07-31T08:08:33;10.55;;;4.40;;
72559;SDS011;62987;52.382;9.752;2023-07-31T08:11:02;11.32;;;5.85;;
72559;SDS011;62987;52.382;9.752;2023-07-31T08:13:30;12.45;;;4.00;;
72559;SDS011;62987;52.382;9.752;2023-07-31T08:15:58;8.80;;;3.08;;
72559;SDS011;62987;52.382;9.752;2023-07-31T08:18:26;7.07;;;2.90;;
72559;SDS011;62987;52.382;9.752;2023-07-31T08:20:55;6.15;;;3.05;;
72559;SDS011;62987;52.382;9.752;2023-07-31T08:23:23;8.38;;;2.78;;
72559;SDS011;62987;52.382;9.752;2023-07-31T08:25:51;7.75;;;3.80;;
72559;SDS011;62987;52.382;9.752;2023-07-31T08:28:19;6.97;;;3.70;;
72559;SDS011;62987;52.382;9.752;2023-07-31T08:30:47;6.65;;;2.85;;
72559;SDS011;62987;52.382;9.752;2023-07-31T08:33:17;6.38;;;2.63;;
72559;SDS011;62987;52.382;9.752;2023-07-31T08:35:45;8.07;;;2.53;;
72559;SDS011;62987;52.382;9.752;2023-07-31T08:38:14;7.53;;;3.22;;
72559;SDS011;62987;52.382;9.752;2023-07-31T08:40:42;7.88;;;2.70;;
72559;SDS011;62987;52.382;9.752;2023-07-31T08:43:10;5.93;;;3.00;;
72559;SDS011;62987;52.382;9.752;2023-07-31T08:45:38;8.40;;;2.90;;
72559;SDS011;62987;52.382;9.752;2023-07-31T08:48:09;5.60;;;2.88;;
72559;SDS011;62987;52.382;9.752;2023-07-31T08:50:39;7.20;;;2.67;;
72559;SDS011;62987;52.382;9.752;2023-07-31T08:53:07;5.25;;;2.50;;
72559;SDS011;62987;52.382;9.752;2023-07-31T08:55:36;7.72;;;2.80;;
72559;SDS011;62987;52.382;9.752;2023-07-31T08:58:05;6.88;;;2.50;;
72559;SDS011;62987;52.382;9.752;2023-07-31T09:00:33;6.90;;;2.53;;
72559;SDS011;62987;52.382;9.752;2023-07-31T09:03:03;7.78;;;3.00;;
72559;SDS011;62987;52.382;9.752;2023-07-31T09:05:36;7.40;;;2.80;;
72559;SDS011;62987;52.382;9.752;2023-07-31T09:08:09;6.18;;;2.70;;
72559;SDS011;62987;52.382;9.752;2023-07-31T09:10:41;7.43;;;3.00;;
72559;SDS011;62987;52.382;9.752;2023-07-31T09:13:09;6.45;;;3.03;;
72559;SDS011;62987;52.382;9.752;2023-07-31T09:15:39;7.88;;;2.33;;
72559;SDS011;62987;52.382;9.752;2023-07-31T09:18:07;5.65;;;2.70;;
72559;SDS011;62987;52.382;9.752;2023-07-31T09:20:36;7.25;;;2.70;;
72559;SDS011;62987;52.382;9.752;2023-07-31T09:23:05;7.68;;;2.40;;
72559;SDS011;62987;52.382;9.752;2023-07-31T09:25:35;5.55;;;2.20;;
72559;SDS011;62987;52.382;9.752;2023-07-31T09:28:06;5.82;;;2.30;;
72559;SDS011;62987;52.382;9.752;2023-07-31T09:30:45;7.18;;;2.78;;
72559;SDS011;62987;52.382;9.752;2023-07-31T09:33:14;8.65;;;2.25;;
72559;SDS011;62987;52.382;9.752;2023-07-31T09:35:43;4.57;;;1.92;;
72559;SDS011;62987;52.382;9.752;2023-07-31T09:38:11;3.78;;;1.60;;
72559;SDS011;62987;52.382;9.752;2023-07-31T09:40:41;8.07;;;2.05;;
72559;SDS011;62987;52.382;9.752;2023-07-31T09:43:12;4.70;;;2.35;;
72559;SDS011;62987;52.382;9.752;2023-07-31T09:45:47;6.45;;;2.60;;
72559;SDS011;62987;52.382;9.752;2023-07-31T09:48:22;4.85;;;1.73;;
72559;SDS011;62987;52.382;9.752;2023-07-31T09:50:53;4.18;;;1.58;;
72559;SDS011;62987;52.382;9.752;2023-07-31T09:53:27;5.57;;;1.77;;
72559;SDS011;62987;52.382;9.752;2023-07-31T09:55:57;3.92;;;1.63;;
72559;SDS011;62987;52.382;9.752;2023-07-31T09:58:28;4.85;;;1.60;;
72559;SDS011;62987;52.382;9.752;2023-07-31T10:00:57;4.80;;;1.60;;
72559;SDS011;62987;52.382;9.752;2023-07-31T10:03:26;3.95;;;1.30;;
72559;SDS011;62987;52.382;9.752;2023-07-31T10:05:57;3.28;;;1.15;;
72559;SDS011;62987;52.382;9.752;2023-07-31T10:08:28;2.45;;;0.98;;
72559;SDS011;62987;52.382;9.752;2023-07-31T10:10:59;3.70;;;1.20;;
72559;SDS011;62987;52.382;9.752;2023-07-31T10:13:31;3.40;;;1.35;;
72559;SDS011;62987;52.382;9.752;2023-07-31T10:16:00;4.15;;;1.00;;
72559;SDS011;62987;52.382;9.752;2023-07-31T10:18:30;2.25;;;1.05;;
72559;SDS011;62987;52.382;9.752;2023-07-31T10:20:59;3.33;;;1.13;;
72559;SDS011;62987;52.382;9.752;2023-07-31T10:23:27;3.83;;;1.38;;
72559;SDS011;62987;52.382;9.752;2023-07-31T10:25:56;2.80;;;0.93;;
72559;SDS011;62987;52.382;9.752;2023-07-31T10:28:26;4.80;;;1.38;;
72559;SDS011;62987;52.382;9.752;2023-07-31T10:30:56;3.63;;;1.27;;
72559;SDS011;62987;52.382;9.752;2023-07-31T10:33:25;2.97;;;1.30;;
72559;SDS011;62987;52.382;9.752;2023-07-31T10:38:43;3.20;;;1.13;;
72559;SDS011;62987;52.382;9.752;2023-07-31T10:41:11;2.33;;;1.05;;
72559;SDS011;62987;52.382;9.752;2023-07-31T10:43:39;3.75;;;0.98;;
72559;SDS011;62987;52.382;9.752;2023-07-31T10:46:09;2.10;;;1.00;;
72559;SDS011;62987;52.382;9.752;2023-07-31T10:48:40;2.67;;;1.00;;
72559;SDS011;62987;52.382;9.752;2023-07-31T10:51:09;2.58;;;1.17;;
72559;SDS011;62987;52.382;9.752;2023-07-31T10:53:39;2.58;;;1.00;;
72559;SDS011;62987;52.382;9.752;2023-07-31T10:56:08;3.28;;;1.05;;
72559;SDS011;62987;52.382;9.752;2023-07-31T10:58:39;2.05;;;0.88;;
72559;SDS011;62987;52.382;9.752;2023-07-31T11:01:08;2.42;;;1.10;;
72559;SDS011;62987;52.382;9.752;2023-07-31T11:03:43;3.15;;;1.10;;
72559;SDS011;62987;52.382;9.752;2023-07-31T11:06:12;2.78;;;1.20;;
72559;SDS011;62987;52.382;9.752;2023-07-31T11:08:44;2.55;;;1.13;;
72559;SDS011;62987;52.382;9.752;2023-07-31T11:11:14;2.28;;;0.85;;
72559;SDS011;62987;52.382;9.752;2023-07-31T11:13:44;3.35;;;1.35;;
72559;SDS011;62987;52.382;9.752;2023-07-31T11:16:17;2.58;;;0.90;;
72559;SDS011;62987;52.382;9.752;2023-07-31T11:18:47;3.13;;;0.88;;
72559;SDS011;62987;52.382;9.752;2023-07-31T11:21:17;3.08;;;0.88;;
72559;SDS011;62987;52.382;9.752;2023-07-31T11:23:47;2.78;;;1.10;;
72559;SDS011;62987;52.382;9.752;2023-07-31T11:26:16;4.05;;;1.48;;
72559;SDS011;62987;52.382;9.752;2023-07-31T11:28:46;3.15;;;1.15;;
72559;SDS011;62987;52.382;9.752;2023-07-31T11:31:14;2.63;;;1.20;;
72559;SDS011;62987;52.382;9.752;2023-07-31T11:33:44;2.95;;;0.95;;
72559;SDS011;62987;52.382;9.752;2023-07-31T11:36:16;2.95;;;1.10;;
72559;SDS011;62987;52.382;9.752;2023-07-31T11:38:47;3.63;;;0.95;;
72559;SDS011;62987;52.382;9.752;2023-07-31T11:41:15;3.50;;;1.23;;
72559;SDS011;62987;52.382;9.752;2023-07-31T11:43:45;3.28;;;1.38;;
72559;SDS011;62987;52.382;9.752;2023-07-31T11:46:13;3.63;;;1.40;;
72559;SDS011;62987;52.382;9.752;2023-07-31T11:48:42;2.88;;;1.23;;
72559;SDS011;62987;52.382;9.752;2023-07-31T11:51:12;6.72;;;1.60;;
72559;SDS011;62987;52.382;9.752;2023-07-31T11:53:42;4.45;;;1.17;;
72559;SDS011;62987;52.382;9.752;2023-07-31T11:56:13;1.58;;;0.80;;
72559;SDS011;62987;52.382;9.752;2023-07-31T11:58:43;2.92;;;1.27;;
72559;SDS011;62987;52.382;9.752;2023-07-31T12:01:14;3.00;;;1.05;;
72559;SDS011;62987;52.382;9.752;2023-07-31T12:03:44;3.20;;;1.33;;
72559;SDS011;62987;52.382;9.752;2023-07-31T12:06:14;2.60;;;1.20;;
72559;SDS011;62987;52.382;9.752;2023-07-31T12:08:42;2.65;;;0.80;;
72559;SDS011;62987;52.382;9.752;2023-07-31T12:11:10;2.90;;;1.30;;
72559;SDS011;62987;52.382;9.752;2023-07-31T12:13:39;2.78;;;1.10;;
72559;SDS011;62987;52.382;9.752;2023-07-31T12:16:07;4.57;;;1.98;;
72559;SDS011;62987;52.382;9.752;2023-07-31T12:18:36;2.60;;;1.00;;
72559;SDS011;62987;52.382;9.752;2023-07-31T12:21:06;1.92;;;0.80;;
72559;SDS011;62987;52.382;9.752;2023-07-31T12:23:37;2.92;;;1.05;;
72559;SDS011;62987;52.382;9.752;2023-07-31T12:26:06;1.63;;;1.17;;
72559;SDS011;62987;52.382;9.752;2023-07-31T12:28:37;6.68;;;2.88;;
72559;SDS011;62987;52.382;9.752;2023-07-31T12:31:08;2.95;;;1.20;;
72559;SDS011;62987;52.382;9.752;2023-07-31T12:33:41;2.60;;;1.00;;
72559;SDS011;62987;52.382;9.752;2023-07-31T12:36:09;1.52;;;0.60;;
72559;SDS011;62987;52.382;9.752;2023-07-31T12:38:40;2.40;;;1.05;;
72559;SDS011;62987;52.382;9.752;2023-07-31T12:41:08;2.30;;;0.70;;
72559;SDS011;62987;52.382;9.752;2023-07-31T12:43:37;2.63;;;0.95;;
72559;SDS011;62987;52.382;9.752;2023-07-31T12:46:06;1.85;;;0.77;;
72559;SDS011;62987;52.382;9.752;2023-07-31T12:48:35;2.03;;;1.05;;
72559;SDS011;62987;52.382;9.752;2023-07-31T12:51:04;2.08;;;0.90;;
72559;SDS011;62987;52.382;9.752;2023-07-31T12:53:33;2.03;;;0.77;;
72559;SDS011;62987;52.382;9.752;2023-07-31T12:56:02;1.77;;;0.60;;
72559;SDS011;62987;52.382;9.752;2023-07-31T12:58:31;1.10;;;0.55;;
72559;SDS011;62987;52.382;9.752;2023-07-31T13:00:59;1.83;;;0.73;;
72559;SDS011;62987;52.382;9.752;2023-07-31T13:03:28;1.80;;;0.75;;
72559;SDS011;62987;52.382;9.752;2023-07-31T13:05:57;1.35;;;0.47;;
72559;SDS011;62987;52.382;9.752;2023-07-31T13:08:25;1.42;;;0.52;;
72559;SDS011;62987;52.382;9.752;2023-07-31T13:10:53;0.95;;;0.50;;
72559;SDS011;62987;52.382;9.752;2023-07-31T13:13:22;1.77;;;0.73;;
72559;SDS011;62987;52.382;9.752;2023-07-31T13:15:50;1.20;;;0.50;;
72559;SDS011;62987;52.382;9.752;2023-07-31T13:18:18;3.22;;;0.60;;
72559;SDS011;62987;52.382;9.752;2023-07-31T13:20:46;2.38;;;0.57;;
72559;SDS011;62987;52.382;9.752;2023-07-31T13:23:14;1.25;;;0.40;;
72559;SDS011;62987;52.382;9.752;2023-07-31T13:25:42;2.42;;;1.15;;
72559;SDS011;62987;52.382;9.752;2023-07-31T13:28:10;1.48;;;0.68;;
72559;SDS011;62987;52.382;9.752;2023-07-31T13:30:40;0.93;;;0.45;;
72559;SDS011;62987;52.382;9.752;2023-07-31T13:33:08;1.52;;;0.40;;
72559;SDS011;62987;52.382;9.752;2023-07-31T13:35:56;3.00;;;0.95;;
72559;SDS011;62987;52.382;9.752;2023-07-31T13:38:24;1.35;;;0.50;;
72559;SDS011;62987;52.382;9.752;2023-07-31T13:40:52;3.75;;;0.88;;
72559;SDS011;62987;52.382;9.752;2023-07-31T13:43:20;0.70;;;0.40;;
72559;SDS011;62987;52.382;9.752;2023-07-31T13:45:49;1.85;;;0.55;;
72559;SDS011;62987;52.382;9.752;2023-07-31T13:48:17;2.25;;;0.60;;
72559;SDS011;62987;52.382;9.752;2023-07-31T13:50:45;2.35;;;0.80;;
72559;SDS011;62987;52.382;9.752;2023-07-31T13:53:13;1.10;;;0.50;;
72559;SDS011;62987;52.382;9.752;2023-07-31T13:55:41;2.17;;;0.63;;
72559;SDS011;62987;52.382;9.752;2023-07-31T13:58:11;1.58;;;0.60;;
72559;SDS011;62987;52.382;9.752;2023-07-31T14:00:39;1.70;;;0.73;;
72559;SDS011;62987;52.382;9.752;2023-07-31T14:03:09;0.80;;;0.40;;
72559;SDS011;62987;52.382;9.752;2023-07-31T14:05:37;1.02;;;0.50;;
72559;SDS011;62987;52.382;9.752;2023-07-31T14:08:05;0.30;;;0.30;;
72559;SDS011;62987;52.382;9.752;2023-07-31T14:10:33;1.35;;;0.60;;
72559;SDS011;62987;52.382;9.752;2023-07-31T14:13:01;2.67;;;0.70;;
72559;SDS011;62987;52.382;9.752;2023-07-31T14:15:29;0.93;;;0.30;;
72559;SDS011;62987;52.382;9.752;2023-07-31T14:17:58;1.30;;;0.45;;
72559;SDS011;62987;52.382;9.752;2023-07-31T14:20:29;1.73;;;0.73;;
72559;SDS011;62987;52.382;9.752;2023-07-31T14:22:57;1.10;;;0.55;;
72559;SDS011;62987;52.382;9.752;2023-07-31T14:25:25;1.13;;;0.50;;
72559;SDS011;62987;52.382;9.752;2023-07-31T14:27:53;1.25;;;0.50;;
72559;SDS011;62987;52.382;9.752;2023-07-31T14:30:21;1.10;;;0.50;;
72559;SDS011;62987;52.382;9.752;2023-07-31T14:32:53;0.95;;;0.47;;
72559;SDS011;62987;52.382;9.752;2023-07-31T14:35:22;3.17;;;1.17;;
72559;SDS011;62987;52.382;9.752;2023-07-31T14:37:52;2.65;;;1.23;;
72559;SDS011;62987;52.382;9.752;2023-07-31T14:40:20;2.03;;;0.90;;
72559;SDS011;62987;52.382;9.752;2023-07-31T14:42:48;2.97;;;1.08;;
72559;SDS011;62987;52.382;9.752;2023-07-31T14:45:16;3.72;;;1.10;;
72559;SDS011;62987;52.382;9.752;2023-07-31T14:47:44;3.20;;;1.08;;
72559;SDS011;62987;52.382;9.752;2023-07-31T14:50:12;2.47;;;1.00;;
72559;SDS011;62987;52.382;9.752;2023-07-31T14:52:40;3.58;;;1.20;;
72559;SDS011;62987;52.382;9.752;2023-07-31T14:55:09;3.15;;;1.10;;
72559;SDS011;62987;52.382;9.752;2023-07-31T14:57:37;3.72;;;1.20;;
72559;SDS011;62987;52.382;9.752;2023-07-31T15:00:06;4.60;;;1.60;;